createdAt,value
2023-04-27T00:01:24.019Z,32.50
2023-04-27T00:04:00.085Z,32.50
2023-04-27T00:06:36.069Z,32.70
2023-04-27T00:09:12.227Z,32.90
2023-04-27T00:11:48.348Z,33.00
2023-04-27T00:14:28.342Z,33.10
2023-04-27T00:17:04.259Z,33.10
2023-04-27T00:19:41.805Z,33.20
2023-04-27T00:22:18.265Z,33.30
2023-04-27T00:24:54.100Z,33.30
2023-04-27T00:27:29.977Z,33.40
2023-04-27T00:30:08.351Z,33.50
2023-04-27T00:32:44.283Z,33.50
2023-04-27T00:35:20.195Z,33.60
2023-04-27T00:37:56.108Z,33.70
2023-04-27T00:40:32.670Z,33.90
2023-04-27T00:43:08.602Z,34.10
2023-04-27T00:45:44.627Z,34.20
2023-04-27T00:48:21.905Z,34.20
2023-04-27T00:50:57.928Z,34.30
2023-04-27T00:53:36.556Z,34.40
2023-04-27T00:56:13.064Z,34.40
2023-04-27T00:58:49.231Z,34.50
2023-04-27T01:01:26.021Z,34.50
2023-04-27T01:04:02.488Z,34.70
2023-04-27T01:06:39.307Z,34.90
2023-04-27T01:09:16.492Z,35.00
2023-04-27T01:11:52.510Z,35.10
2023-04-27T01:14:29.999Z,35.20
2023-04-27T01:17:06.901Z,35.20
2023-04-27T01:19:44.851Z,35.30
2023-04-27T01:22:21.564Z,35.30
2023-04-27T01:24:57.417Z,35.40
2023-04-27T01:27:33.489Z,35.60
2023-04-27T01:30:09.529Z,36.50
2023-04-27T01:32:45.447Z,36.70
2023-04-27T01:35:21.432Z,36.90
2023-04-27T01:37:57.463Z,36.90
2023-04-27T01:40:33.757Z,37.00
2023-04-27T01:43:09.666Z,37.30
2023-04-27T01:45:45.983Z,37.20
2023-04-27T01:48:21.955Z,37.20
2023-04-27T01:50:59.593Z,37.20
2023-04-27T01:53:36.253Z,37.20
2023-04-27T01:56:12.162Z,37.30
2023-04-27T01:58:48.026Z,37.40
2023-04-27T02:01:24.138Z,37.50
2023-04-27T02:04:00.328Z,37.50
2023-04-27T02:06:36.427Z,37.70
2023-04-27T02:09:13.115Z,37.80
2023-04-27T02:11:49.763Z,37.80
2023-04-27T02:14:25.768Z,37.90
2023-04-27T02:17:01.642Z,38.00
2023-04-27T02:19:37.498Z,38.00
2023-04-27T02:22:14.839Z,38.20
2023-04-27T02:24:51.136Z,38.30
2023-04-27T02:27:26.986Z,38.40
2023-04-27T02:30:11.752Z,38.50
2023-04-27T02:32:48.182Z,38.60
2023-04-27T02:35:24.375Z,38.70
2023-04-27T02:38:00.274Z,38.90
2023-04-27T02:40:36.142Z,39.10
2023-04-27T02:43:15.478Z,39.30
2023-04-27T02:45:51.292Z,39.40
2023-04-27T02:48:27.332Z,39.50
2023-04-27T02:51:04.664Z,39.60
2023-04-27T02:53:40.939Z,39.70
2023-04-27T02:56:17.024Z,39.80
2023-04-27T02:58:53.008Z,39.90
2023-04-27T03:01:28.904Z,40.00
2023-04-27T03:04:05.155Z,40.10
2023-04-27T03:06:41.526Z,40.10
2023-04-27T03:09:18.307Z,40.20
2023-04-27T03:11:54.166Z,40.20
2023-04-27T03:14:30.071Z,40.20
2023-04-27T03:17:06.957Z,40.20
2023-04-27T03:19:42.824Z,40.20
2023-04-27T03:22:18.800Z,40.10
2023-04-27T03:24:54.636Z,40.10
2023-04-27T03:27:30.728Z,40.10
2023-04-27T03:30:07.478Z,40.20
2023-04-27T03:32:44.895Z,40.20
2023-04-27T03:35:22.265Z,40.30
2023-04-27T03:37:58.107Z,40.20
2023-04-27T03:40:33.960Z,40.20
2023-04-27T03:43:09.826Z,40.20
2023-04-27T03:45:45.826Z,40.20
2023-04-27T03:48:22.437Z,40.20
2023-04-27T03:51:01.896Z,40.40
2023-04-27T03:53:37.999Z,40.50
2023-04-27T03:56:15.402Z,40.90
2023-04-27T03:58:51.282Z,40.60
2023-04-27T04:01:30.794Z,40.70
2023-04-27T04:04:08.016Z,40.70
2023-04-27T04:06:43.973Z,40.80
2023-04-27T04:09:22.710Z,41.00
2023-04-27T04:11:59.770Z,41.00
2023-04-27T04:14:35.736Z,41.30
2023-04-27T04:17:11.706Z,41.30
2023-04-27T04:19:49.889Z,41.30
2023-04-27T04:22:25.874Z,41.40
2023-04-27T04:25:02.593Z,41.50
2023-04-27T04:27:38.924Z,41.50
2023-04-27T04:30:15.052Z,41.40
2023-04-27T04:32:51.104Z,41.40
2023-04-27T04:35:27.337Z,41.30
2023-04-27T04:38:08.937Z,41.30
2023-04-27T04:40:46.070Z,41.10
2023-04-27T04:43:23.723Z,41.20
2023-04-27T04:45:59.765Z,41.20
2023-04-27T04:48:37.640Z,41.20
2023-04-27T04:51:13.915Z,41.20
2023-04-27T04:53:50.231Z,41.20
2023-04-27T04:56:26.312Z,41.10
2023-04-27T04:59:04.132Z,41.20
2023-04-27T05:01:42.349Z,41.20
2023-04-27T05:04:18.694Z,41.30
2023-04-27T05:06:54.860Z,41.30
2023-04-27T05:09:30.926Z,41.30
2023-04-27T05:12:07.830Z,41.10
2023-04-27T05:14:44.649Z,41.20
2023-04-27T05:17:20.660Z,41.20
2023-04-27T05:19:56.724Z,41.10
2023-04-27T05:22:32.776Z,40.20
2023-04-27T05:25:09.238Z,40.20
2023-04-27T05:27:46.015Z,40.10
2023-04-27T05:30:22.113Z,40.10
2023-04-27T05:32:58.759Z,40.00
2023-04-27T05:35:35.806Z,39.80
2023-04-27T05:38:17.105Z,39.70
2023-04-27T05:40:59.485Z,39.70
2023-04-27T05:43:35.456Z,39.60
2023-04-27T05:46:14.909Z,39.50
2023-04-27T05:48:51.005Z,39.50
2023-04-27T05:51:28.867Z,39.40
2023-04-27T05:54:05.249Z,39.30
2023-04-27T05:56:44.923Z,39.10
2023-04-27T05:59:21.822Z,39.00
2023-04-27T06:01:58.556Z,38.80
2023-04-27T06:04:37.038Z,38.40
2023-04-27T06:07:16.147Z,38.20
2023-04-27T06:09:52.728Z,37.90
2023-04-27T06:12:29.140Z,37.70
2023-04-27T06:15:09.192Z,37.10
2023-04-27T06:17:46.075Z,36.90
2023-04-27T06:20:24.005Z,36.50
2023-04-27T06:23:01.226Z,36.10
2023-04-27T06:25:40.396Z,35.80
2023-04-27T06:28:16.955Z,35.70
2023-04-27T06:30:54.794Z,35.60
2023-04-27T06:33:31.769Z,35.60
2023-04-27T06:36:08.158Z,35.40
2023-04-27T06:38:46.240Z,35.40
2023-04-27T06:41:23.021Z,35.20
2023-04-27T06:43:59.402Z,34.90
2023-04-27T06:46:35.942Z,34.90
2023-04-27T06:49:12.944Z,34.80
2023-04-27T06:51:49.802Z,34.70
2023-04-27T06:54:25.746Z,34.40
2023-04-27T06:57:02.041Z,34.40
2023-04-27T06:59:38.829Z,34.30
2023-04-27T07:02:14.863Z,34.30
2023-04-27T07:04:51.292Z,34.30
2023-04-27T07:07:27.337Z,34.10
2023-04-27T07:10:04.185Z,33.90
2023-04-27T07:12:42.283Z,33.70
2023-04-27T07:15:18.250Z,33.50
2023-04-27T07:17:54.978Z,33.20
2023-04-27T07:20:31.041Z,33.20
2023-04-27T07:23:07.134Z,32.90
2023-04-27T07:25:45.380Z,33.00
2023-04-27T07:28:22.623Z,32.60
2023-04-27T07:30:59.238Z,32.60
2023-04-27T07:33:36.574Z,32.60
2023-04-27T07:36:12.493Z,32.40
2023-04-27T07:38:48.908Z,32.40
2023-04-27T07:41:24.877Z,32.50
2023-04-27T07:44:00.791Z,32.60
2023-04-27T07:46:38.452Z,32.50
2023-04-27T07:49:16.178Z,32.10
2023-04-27T07:51:52.461Z,32.40
2023-04-27T07:54:29.646Z,32.50
2023-04-27T07:57:12.105Z,32.60
2023-04-27T07:59:48.108Z,32.70
2023-04-27T08:02:34.739Z,32.70
2023-04-27T08:05:11.407Z,32.50
2023-04-27T08:07:48.858Z,32.20
2023-04-27T08:10:25.103Z,32.00
2023-04-27T08:13:01.162Z,32.00
2023-04-27T08:15:37.571Z,31.30
2023-04-27T08:18:13.525Z,31.50
2023-04-27T08:20:49.420Z,31.90
2023-04-27T08:23:32.809Z,32.10
2023-04-27T08:26:14.228Z,31.90
2023-04-27T08:28:51.140Z,31.80
2023-04-27T08:31:29.043Z,31.50
2023-04-27T08:34:05.897Z,31.40
2023-04-27T08:36:41.781Z,31.10
2023-04-27T08:39:18.173Z,31.10
2023-04-27T08:41:55.990Z,30.50
2023-04-27T08:44:31.911Z,29.70
2023-04-27T08:47:09.107Z,29.60
2023-04-27T08:49:45.903Z,30.00
2023-04-27T08:52:22.936Z,30.20
2023-04-27T08:54:58.839Z,30.20
2023-04-27T08:57:34.774Z,30.00
2023-04-27T09:00:14.401Z,29.80
2023-04-27T09:02:53.246Z,29.40
2023-04-27T09:05:30.083Z,29.30
2023-04-27T09:08:08.337Z,29.40
2023-04-27T09:10:50.702Z,29.30
2023-04-27T09:13:38.492Z,29.20
2023-04-27T09:16:14.939Z,29.10
2023-04-27T09:18:51.066Z,28.80
2023-04-27T09:21:29.856Z,28.90
2023-04-27T09:24:14.145Z,29.10
2023-04-27T09:26:50.566Z,28.90
2023-04-27T09:29:38.376Z,29.00
2023-04-27T09:32:20.533Z,28.90
2023-04-27T09:34:57.469Z,28.10
2023-04-27T09:37:35.193Z,27.80
2023-04-27T09:40:11.899Z,27.80
2023-04-27T09:42:58.806Z,28.00
2023-04-27T09:45:37.223Z,28.10
2023-04-27T09:48:27.254Z,28.20
2023-04-27T09:51:04.141Z,27.90
2023-04-27T09:53:50.362Z,27.50
2023-04-27T09:56:32.731Z,26.60
2023-04-27T09:59:45.678Z,26.50
2023-04-27T10:02:24.797Z,27.00
2023-04-27T10:05:34.413Z,26.60
2023-04-27T10:08:11.495Z,26.90
2023-04-27T10:10:48.781Z,26.60
2023-04-27T10:13:27.021Z,26.60
2023-04-27T10:16:16.715Z,26.70
2023-04-27T10:18:55.815Z,26.60
2023-04-27T10:21:32.828Z,26.50
2023-04-27T10:24:11.196Z,26.30
2023-04-27T10:26:48.546Z,25.80
2023-04-27T10:29:37.319Z,26.50
2023-04-27T10:32:19.333Z,27.10
2023-04-27T10:35:07.426Z,27.10
2023-04-27T10:37:44.012Z,27.10
2023-04-27T10:40:20.082Z,26.50
2023-04-27T10:42:56.869Z,26.30
2023-04-27T10:45:34.429Z,26.20
2023-04-27T10:48:15.694Z,25.70
2023-04-27T10:50:52.411Z,26.20
2023-04-27T10:53:35.754Z,26.70
2023-04-27T10:56:11.742Z,26.90
2023-04-27T10:58:49.528Z,27.40
2023-04-27T11:01:27.309Z,27.90
2023-04-27T11:04:05.434Z,26.70
2023-04-27T11:06:45.739Z,26.80
2023-04-27T11:09:28.028Z,26.90
2023-04-27T11:12:10.237Z,26.70
2023-04-27T11:14:46.367Z,26.70
2023-04-27T11:17:30.551Z,26.60
2023-04-27T11:20:10.375Z,26.60
2023-04-27T11:22:47.158Z,26.80
2023-04-27T11:25:29.890Z,26.80
2023-04-27T11:28:17.071Z,26.50
2023-04-27T11:30:59.898Z,26.30
2023-04-27T11:33:36.326Z,26.10
2023-04-27T11:36:19.982Z,26.30
2023-04-27T11:39:00.000Z,26.00
2023-04-27T11:41:37.395Z,25.30
2023-04-27T11:44:14.047Z,25.30
2023-04-27T11:46:50.040Z,25.40
2023-04-27T11:49:27.062Z,24.60
2023-04-27T11:52:03.144Z,24.70
2023-04-27T11:54:39.056Z,24.60
2023-04-27T11:57:15.049Z,24.70
2023-04-27T11:59:51.049Z,24.50
2023-04-27T12:02:31.603Z,25.00
2023-04-27T12:05:10.533Z,25.10
2023-04-27T12:07:46.765Z,25.40
2023-04-27T12:10:22.718Z,26.80
2023-04-27T12:12:59.145Z,26.00
2023-04-27T12:15:35.035Z,27.10
2023-04-27T12:18:11.316Z,26.70
2023-04-27T12:20:47.338Z,26.10
2023-04-27T12:23:24.444Z,26.50
2023-04-27T12:26:00.749Z,25.20
2023-04-27T12:28:40.309Z,26.50
2023-04-27T12:31:16.944Z,25.90
2023-04-27T12:33:53.950Z,26.80
2023-04-27T12:36:29.975Z,26.00
2023-04-27T12:39:26.807Z,27.00
2023-04-27T12:42:03.570Z,26.50
2023-04-27T12:44:39.453Z,27.10
2023-04-27T12:47:27.776Z,26.10
2023-04-27T12:50:11.923Z,25.10
2023-04-27T12:52:48.231Z,26.10
2023-04-27T12:55:32.838Z,24.60
2023-04-27T12:58:10.027Z,25.30
2023-04-27T13:00:46.383Z,26.20
2023-04-27T13:03:22.442Z,24.80
2023-04-27T13:05:58.416Z,25.20
2023-04-27T13:08:37.011Z,24.80
2023-04-27T13:11:13.000Z,24.90
2023-04-27T13:13:49.241Z,25.40
2023-04-27T13:16:25.869Z,25.50
2023-04-27T13:19:04.297Z,26.00
2023-04-27T13:21:41.084Z,23.40
2023-04-27T13:24:18.548Z,24.00
2023-04-27T13:26:54.494Z,25.00
2023-04-27T13:29:30.785Z,25.30
2023-04-27T13:32:06.752Z,24.10
2023-04-27T13:34:42.677Z,24.00
2023-04-27T13:37:19.164Z,24.10
2023-04-27T13:39:56.203Z,25.20
2023-04-27T13:42:32.118Z,24.70
2023-04-27T13:45:09.355Z,24.70
2023-04-27T13:47:45.278Z,24.40
2023-04-27T13:50:22.690Z,24.70
2023-04-27T13:52:58.649Z,24.50
2023-04-27T13:55:37.128Z,23.50
2023-04-27T13:58:13.892Z,24.60
2023-04-27T14:00:51.957Z,24.30
2023-04-27T14:03:29.273Z,25.90
2023-04-27T14:06:07.495Z,24.00
2023-04-27T14:08:43.425Z,23.60
2023-04-27T14:11:19.476Z,22.90
2023-04-27T14:13:58.035Z,23.80
2023-04-27T14:16:35.262Z,23.20
2023-04-27T14:19:15.917Z,23.40
2023-04-27T14:21:52.228Z,23.70
2023-04-27T14:24:29.910Z,24.30
2023-04-27T14:27:06.046Z,24.70
2023-04-27T14:29:42.176Z,24.90
2023-04-27T14:32:18.177Z,24.60
2023-04-27T14:34:54.294Z,24.60
2023-04-27T14:37:30.240Z,24.20
2023-04-27T14:40:07.266Z,23.80
2023-04-27T14:42:43.220Z,23.30
2023-04-27T14:45:22.898Z,23.70
2023-04-27T14:48:00.397Z,24.10
2023-04-27T14:50:36.340Z,24.20
2023-04-27T14:53:12.266Z,24.30
2023-04-27T14:55:48.142Z,23.80
2023-04-27T14:58:24.093Z,24.40
2023-04-27T15:01:06.117Z,24.10
2023-04-27T15:03:42.145Z,24.50
2023-04-27T15:06:19.043Z,24.40
2023-04-27T15:08:56.287Z,24.60
2023-04-27T15:11:33.041Z,23.40
2023-04-27T15:14:08.986Z,23.90
2023-04-27T15:16:45.265Z,23.40
2023-04-27T15:19:21.142Z,23.40
2023-04-27T15:21:57.051Z,23.30
2023-04-27T15:24:33.078Z,23.80
2023-04-27T15:27:10.056Z,23.80
2023-04-27T15:29:46.212Z,23.60
2023-04-27T15:32:24.516Z,23.60
2023-04-27T15:35:00.675Z,23.90
2023-04-27T15:37:36.972Z,23.80
2023-04-27T15:40:13.260Z,24.10
2023-04-27T15:42:49.181Z,24.10
2023-04-27T15:45:25.403Z,24.80
2023-04-27T15:48:01.490Z,24.40
2023-04-27T15:50:38.490Z,24.40
2023-04-27T15:53:15.475Z,24.40
2023-04-27T15:55:51.498Z,24.70
2023-04-27T15:58:27.387Z,24.90
2023-04-27T16:01:03.268Z,24.80
2023-04-27T16:03:39.214Z,24.90
2023-04-27T16:06:15.121Z,24.90
2023-04-27T16:08:51.014Z,25.40
2023-04-27T16:11:27.279Z,25.40
2023-04-27T16:14:03.664Z,25.10
2023-04-27T16:16:39.860Z,25.10
2023-04-27T16:19:17.891Z,24.70
2023-04-27T16:21:54.514Z,25.00
2023-04-27T16:24:31.318Z,25.20
2023-04-27T16:27:07.333Z,24.70
2023-04-27T16:29:43.505Z,25.10
2023-04-27T16:32:20.319Z,24.90
2023-04-27T16:34:56.537Z,24.90
2023-04-27T16:37:32.750Z,24.70
2023-04-27T16:40:09.490Z,24.70
2023-04-27T16:42:47.031Z,24.50
2023-04-27T16:45:23.910Z,24.50
2023-04-27T16:48:01.272Z,24.10
2023-04-27T16:50:37.293Z,24.30
2023-04-27T16:53:14.773Z,24.10
2023-04-27T16:55:51.242Z,24.40
2023-04-27T16:58:28.821Z,23.90
2023-04-27T17:01:07.694Z,24.30
2023-04-27T17:03:44.443Z,24.50
2023-04-27T17:06:20.679Z,24.20
2023-04-27T17:08:57.621Z,24.20
2023-04-27T17:11:33.782Z,24.30
2023-04-27T17:14:09.744Z,24.70
2023-04-27T17:16:45.962Z,25.00
2023-04-27T17:19:21.804Z,24.90
2023-04-27T17:21:57.791Z,25.10
2023-04-27T17:24:33.726Z,24.90
2023-04-27T17:27:10.506Z,24.90
2023-04-27T17:29:47.328Z,24.90
2023-04-27T17:32:24.320Z,25.00
2023-04-27T17:35:00.257Z,25.10
2023-04-27T17:37:37.879Z,24.80
2023-04-27T17:40:16.271Z,25.10
2023-04-27T17:42:56.338Z,25.20
2023-04-27T17:45:32.495Z,25.40
2023-04-27T17:48:08.500Z,25.70
2023-04-27T17:50:44.469Z,25.90
2023-04-27T17:53:20.488Z,25.80
2023-04-27T17:55:56.427Z,26.00
2023-04-27T17:58:32.545Z,26.30
2023-04-27T18:01:10.277Z,26.00
2023-04-27T18:03:46.716Z,25.90
2023-04-27T18:06:22.867Z,25.80
2023-04-27T18:09:00.957Z,26.10
2023-04-27T18:11:37.331Z,26.20
2023-04-27T18:14:13.201Z,26.40
2023-04-27T18:16:49.182Z,26.70
2023-04-27T18:19:25.179Z,26.50
2023-04-27T18:22:01.139Z,26.60
2023-04-27T18:24:36.974Z,26.70
2023-04-27T18:27:16.585Z,26.70
2023-04-27T18:29:55.656Z,26.80
2023-04-27T18:32:34.402Z,27.00
2023-04-27T18:35:11.343Z,27.20
2023-04-27T18:37:48.978Z,27.10
2023-04-27T18:40:25.808Z,27.30
2023-04-27T18:43:01.864Z,27.30
2023-04-27T18:45:38.383Z,27.60
2023-04-27T18:48:14.278Z,27.70
2023-04-27T18:50:50.449Z,27.70
2023-04-27T18:53:27.923Z,27.70
2023-04-27T18:56:04.154Z,28.00
2023-04-27T18:58:40.168Z,28.00
2023-04-27T19:01:25.333Z,28.10
2023-04-27T19:04:02.093Z,28.40
2023-04-27T19:06:38.206Z,28.60
2023-04-27T19:09:14.223Z,28.70
2023-04-27T19:12:01.992Z,28.70
2023-04-27T19:14:39.379Z,28.70
2023-04-27T19:17:15.465Z,28.70
2023-04-27T19:19:51.386Z,28.70
2023-04-27T19:22:28.366Z,28.80
2023-04-27T19:25:06.358Z,28.80
2023-04-27T19:27:42.281Z,28.80
2023-04-27T19:30:18.216Z,28.90
2023-04-27T19:32:55.454Z,29.10
2023-04-27T19:35:31.419Z,29.10
2023-04-27T19:38:07.402Z,29.10
2023-04-27T19:40:43.262Z,29.10
2023-04-27T19:43:19.093Z,29.40
2023-04-27T19:45:55.423Z,29.40
2023-04-27T19:48:31.299Z,29.40
2023-04-27T19:51:10.902Z,29.50
2023-04-27T19:53:46.759Z,29.50
2023-04-27T19:56:22.575Z,29.50
2023-04-27T19:58:58.634Z,29.50
2023-04-27T20:01:34.521Z,29.60
2023-04-27T20:04:10.972Z,29.50
2023-04-27T20:06:47.222Z,29.50
2023-04-27T20:09:23.941Z,29.60
2023-04-27T20:12:00.434Z,29.50
2023-04-27T20:14:38.530Z,29.60
2023-04-27T20:17:14.579Z,29.70
2023-04-27T20:19:50.508Z,29.70
2023-04-27T20:22:27.069Z,29.60
2023-04-27T20:25:04.026Z,29.70
2023-04-27T20:27:40.475Z,29.70
2023-04-27T20:30:16.451Z,29.80
2023-04-27T20:32:52.403Z,30.00
2023-04-27T20:35:28.312Z,30.00
2023-04-27T20:38:04.340Z,30.10
2023-04-27T20:40:42.034Z,30.10
2023-04-27T20:43:19.386Z,30.30
2023-04-27T20:45:55.399Z,30.40
2023-04-27T20:48:31.862Z,30.50
2023-04-27T20:51:07.883Z,30.60
2023-04-27T20:53:43.836Z,30.80
2023-04-27T20:56:20.244Z,31.00
2023-04-27T20:58:57.024Z,31.00
2023-04-27T21:01:32.949Z,31.00
2023-04-27T21:04:08.942Z,31.00
2023-04-27T21:06:44.855Z,31.10
2023-04-27T21:09:20.953Z,31.10
2023-04-27T21:11:57.077Z,31.20
2023-04-27T21:14:33.746Z,31.30
2023-04-27T21:17:09.776Z,31.30
2023-04-27T21:19:45.639Z,31.40
2023-04-27T21:22:21.947Z,31.90
2023-04-27T21:24:58.658Z,31.70
2023-04-27T21:27:34.547Z,32.00
2023-04-27T21:30:11.114Z,32.00
2023-04-27T21:32:47.005Z,31.90
2023-04-27T21:35:23.507Z,31.90
2023-04-27T21:37:59.864Z,32.00
2023-04-27T21:40:35.806Z,32.10
2023-04-27T21:43:11.631Z,32.30
2023-04-27T21:45:47.875Z,32.40
2023-04-27T21:48:24.477Z,32.40
2023-04-27T21:51:00.468Z,32.50
2023-04-27T21:53:36.375Z,32.50
2023-04-27T21:56:12.202Z,32.60
2023-04-27T21:58:48.034Z,32.60
2023-04-27T22:01:24.131Z,32.80
2023-04-27T22:04:00.974Z,32.90
2023-04-27T22:06:38.006Z,33.00
2023-04-27T22:09:14.016Z,33.10
2023-04-27T22:11:49.976Z,33.20
2023-04-27T22:14:26.033Z,33.30
2023-04-27T22:17:01.866Z,33.80
2023-04-27T22:19:37.778Z,33.40
2023-04-27T22:22:13.699Z,33.50
2023-04-27T22:24:49.600Z,33.60
2023-04-27T22:27:30.053Z,33.70
2023-04-27T22:30:12.078Z,33.70
2023-04-27T22:32:48.079Z,33.70
2023-04-27T22:35:27.057Z,33.80
2023-04-27T22:38:03.832Z,33.80
2023-04-27T22:40:39.687Z,33.80
2023-04-27T22:43:15.673Z,33.80
2023-04-27T22:45:51.623Z,34.00
2023-04-27T22:48:27.479Z,34.30
2023-04-27T22:51:08.976Z,34.30
2023-04-27T22:53:44.852Z,34.40
2023-04-27T22:56:20.805Z,34.60
2023-04-27T22:58:56.778Z,34.70
2023-04-27T23:01:32.746Z,35.10
2023-04-27T23:04:09.395Z,34.80
2023-04-27T23:06:45.685Z,34.80
2023-04-27T23:09:21.694Z,34.90
2023-04-27T23:11:58.873Z,35.00
2023-04-27T23:14:35.854Z,35.20
2023-04-27T23:17:11.698Z,35.50
2023-04-27T23:19:47.590Z,35.90
2023-04-27T23:22:24.675Z,36.20
2023-04-27T23:25:00.528Z,36.50
2023-04-27T23:27:36.375Z,36.80
2023-04-27T23:30:12.383Z,36.90
2023-04-27T23:32:48.227Z,37.00
2023-04-27T23:35:24.356Z,37.10
2023-04-27T23:38:00.288Z,37.30
2023-04-27T23:40:36.377Z,37.50
2023-04-27T23:43:12.188Z,37.60
2023-04-27T23:45:52.078Z,37.70
2023-04-27T23:48:27.884Z,37.70
2023-04-27T23:51:04.915Z,37.80
2023-04-27T23:53:40.749Z,37.80
2023-04-27T23:56:20.432Z,37.90
2023-04-27T23:58:56.286Z,37.90
